Time;durP1;ratioP1;P1;durP2;ratioP2;P2;SDS_P1;SDS_P2;PMS_P1;PMS_P2;Temp;Humidity;BMP_temperature;BMP_pressure;BME280_temperature;BME280_humidity;BME280_pressure;Samples;Min_cycle;Max_cycle;Signal;HPM_P1;HPM_P2
2022/03/11 00:00:01;;;;;;;;;;;22.30;31.30;;;;;;5062986;28;20470;-53
2022/03/11 00:02:27;;;;;;;;;;;22.30;31.30;;;;;;5064071;28;19956;-53
2022/03/11 00:04:52;;;;;;;;;;;22.20;31.50;;;;;;5062725;28;19982;-51
2022/03/11 00:07:18;;;;;;;;;;;22.20;31.60;;;;;;5061945;28;19935;-53
2022/03/11 00:09:43;;;;;;;;;;;22.20;31.20;;;;;;5063971;28;19926;-52
2022/03/11 00:12:09;;;;;;;;;;;22.20;31.00;;;;;;5062208;28;19918;-52
2022/03/11 00:14:34;;;;;;;;;;;22.20;31.10;;;;;;5062982;28;19913;-53
2022/03/11 00:17:00;;;;;;;;;;;22.10;31.30;;;;;;5063049;28;19920;-53
2022/03/11 00:19:25;;;;;;;;;;;22.20;31.30;;;;;;5062034;28;19962;-52
2022/03/11 00:21:51;;;;;;;;;;;22.10;31.20;;;;;;5063934;28;19920;-53
2022/03/11 00:24:16;;;;;;;;;;;22.20;31.30;;;;;;5063444;28;19924;-52
2022/03/11 00:26:42;;;;;;;;;;;22.10;31.20;;;;;;5061509;28;19919;-52
2022/03/11 00:29:07;;;;;;;;;;;22.10;30.70;;;;;;5061221;28;20023;-52
2022/03/11 00:31:32;;;;;;;;;;;22.10;30.70;;;;;;5062774;28;19919;-53
2022/03/11 00:33:59;;;;;;;;;;;22.00;30.90;;;;;;5060912;28;20342;-53
2022/03/11 00:36:24;;;;;;;;;;;22.10;30.90;;;;;;5063575;28;19916;-52
2022/03/11 00:38:50;;;;;;;;;;;22.00;30.60;;;;;;5062443;28;20301;-53
2022/03/11 00:41:16;;;;;;;;;;;22.00;30.90;;;;;;5063215;28;19960;-53
2022/03/11 00:43:42;;;;;;;;;;;22.00;30.70;;;;;;5060502;28;19924;-52
2022/03/11 00:46:07;;;;;;;;;;;22.00;30.70;;;;;;5060579;28;19912;-53
2022/03/11 00:48:33;;;;;;;;;;;21.90;30.70;;;;;;5062465;28;19919;-54
2022/03/11 00:50:58;;;;;;;;;;;21.90;30.80;;;;;;5060914;28;19920;-53
2022/03/11 00:53:24;;;;;;;;;;;21.90;30.60;;;;;;5062810;28;20315;-52
2022/03/11 00:55:50;;;;;;;;;;;21.90;30.80;;;;;;5061521;28;19920;-52
2022/03/11 00:58:16;;;;;;;;;;;21.80;30.90;;;;;;5061219;28;20029;-53
2022/03/11 01:00:41;;;;;;;;;;;21.80;30.70;;;;;;5062347;28;20051;-53
2022/03/11 01:03:06;;;;;;;;;;;21.80;30.50;;;;;;5061783;28;19975;-53
2022/03/11 01:05:32;;;;;;;;;;;21.70;30.50;;;;;;5062333;28;20603;-53
2022/03/11 01:07:57;;;;;;;;;;;21.70;30.50;;;;;;5062234;28;19959;-53
2022/03/11 01:10:23;;;;;;;;;;;21.70;30.50;;;;;;5061688;28;19921;-54
2022/03/11 01:12:48;;;;;;;;;;;21.70;30.60;;;;;;5062495;28;20062;-54
2022/03/11 01:15:14;;;;;;;;;;;21.70;30.60;;;;;;5063038;28;20444;-53
2022/03/11 01:17:39;;;;;;;;;;;21.70;30.60;;;;;;5062159;28;19975;-52
2022/03/11 01:20:05;;;;;;;;;;;21.70;30.70;;;;;;5058768;28;19916;-53
2022/03/11 01:22:31;;;;;;;;;;;21.60;30.70;;;;;;5063711;28;19912;-52
2022/03/11 01:24:56;;;;;;;;;;;21.60;30.60;;;;;;5060701;28;19958;-53
2022/03/11 01:27:22;;;;;;;;;;;21.60;30.80;;;;;;5061785;28;19946;-53
2022/03/11 01:29:47;;;;;;;;;;;21.60;30.60;;;;;;5061610;28;19931;-53
2022/03/11 01:32:13;;;;;;;;;;;21.60;30.70;;;;;;5061908;28;19912;-53
2022/03/11 01:34:38;;;;;;;;;;;21.60;31.30;;;;;;5060870;28;19927;-53
2022/03/11 01:37:04;;;;;;;;;;;21.50;30.60;;;;;;5060914;28;19966;-53
2022/03/11 01:39:30;;;;;;;;;;;21.50;30.60;;;;;;5062566;28;19913;-53
2022/03/11 01:41:55;;;;;;;;;;;21.50;30.30;;;;;;5060642;28;19954;-53
2022/03/11 01:44:22;;;;;;;;;;;21.50;30.40;;;;;;5060707;28;20026;-54
2022/03/11 01:46:48;;;;;;;;;;;21.50;30.50;;;;;;5060553;28;19920;-51
2022/03/11 01:49:13;;;;;;;;;;;21.50;30.60;;;;;;5062017;28;20255;-52
2022/03/11 01:51:39;;;;;;;;;;;21.40;30.40;;;;;;5062361;28;19991;-53
2022/03/11 01:54:04;;;;;;;;;;;21.40;30.40;;;;;;5060109;28;19921;-53
2022/03/11 01:56:30;;;;;;;;;;;21.40;30.30;;;;;;5061518;28;19912;-53
2022/03/11 01:58:55;;;;;;;;;;;21.40;30.10;;;;;;5058898;28;19974;-54
2022/03/11 02:01:21;;;;;;;;;;;21.40;30.40;;;;;;5060891;28;19912;-53
2022/03/11 02:03:47;;;;;;;;;;;21.40;30.20;;;;;;5059782;28;19930;-54
2022/03/11 02:06:15;;;;;;;;;;;21.40;30.90;;;;;;5061411;28;19920;-53
2022/03/11 02:08:41;;;;;;;;;;;21.40;30.30;;;;;;5060439;28;19913;-52
2022/03/11 02:11:07;;;;;;;;;;;21.40;30.40;;;;;;5059583;28;20347;-53
2022/03/11 02:13:42;;;;;;;;;;;21.30;30.50;;;;;;5062171;28;19913;-53
2022/03/11 02:16:07;;;;;;;;;;;21.30;30.50;;;;;;5062191;28;19931;-52
2022/03/11 02:18:33;;;;;;;;;;;21.30;30.90;;;;;;5061525;28;20685;-52
2022/03/11 02:20:58;;;;;;;;;;;21.40;31.10;;;;;;5060689;28;20296;-53
2022/03/11 02:23:24;;;;;;;;;;;21.40;31.10;;;;;;5060702;28;20607;-52
2022/03/11 02:25:49;;;;;;;;;;;21.50;31.10;;;;;;5059808;28;23198;-54
2022/03/11 02:28:14;;;;;;;;;;;21.60;31.00;;;;;;5059670;28;20066;-53
2022/03/11 02:30:40;;;;;;;;;;;21.80;30.80;;;;;;5061389;28;19918;-52
2022/03/11 02:33:05;;;;;;;;;;;22.00;30.60;;;;;;5061170;28;20379;-53
2022/03/11 02:35:31;;;;;;;;;;;22.40;30.30;;;;;;5059208;28;20003;-53
2022/03/11 02:37:56;;;;;;;;;;;22.70;29.80;;;;;;5061014;28;19960;-53
2022/03/11 02:40:22;;;;;;;;;;;23.10;29.40;;;;;;5060244;28;19917;-52
2022/03/11 02:42:47;;;;;;;;;;;23.30;29.10;;;;;;5061671;28;19927;-53
2022/03/11 02:45:13;;;;;;;;;;;23.50;28.80;;;;;;5059799;28;20003;-53
2022/03/11 02:47:38;;;;;;;;;;;23.60;28.70;;;;;;5061056;28;19959;-53
2022/03/11 02:50:05;;;;;;;;;;;23.80;28.60;;;;;;5058338;28;19920;-53
2022/03/11 02:52:30;;;;;;;;;;;23.80;28.40;;;;;;5060542;28;19958;-54
2022/03/11 02:54:56;;;;;;;;;;;23.90;28.40;;;;;;5059880;28;19920;-53
2022/03/11 02:57:21;;;;;;;;;;;24.00;28.40;;;;;;5060923;28;20015;-52
2022/03/11 02:59:47;;;;;;;;;;;24.00;28.30;;;;;;5042693;28;20313;-52
2022/03/11 03:02:12;;;;;;;;;;;24.00;28.30;;;;;;5059492;28;19912;-52
2022/03/11 03:04:38;;;;;;;;;;;24.00;28.30;;;;;;5059299;28;19921;-52
2022/03/11 03:07:03;;;;;;;;;;;24.00;28.30;;;;;;5059122;28;19925;-52
2022/03/11 03:09:29;;;;;;;;;;;24.00;28.30;;;;;;5059987;28;19974;-52
2022/03/11 03:11:54;;;;;;;;;;;23.90;28.30;;;;;;5060461;28;19922;-53
2022/03/11 03:14:20;;;;;;;;;;;23.90;28.40;;;;;;5061218;28;20011;-53
2022/03/11 03:16:45;;;;;;;;;;;23.80;28.50;;;;;;5065466;28;20374;-53
2022/03/11 03:19:11;;;;;;;;;;;23.80;28.60;;;;;;5062251;28;19912;-53
2022/03/11 03:21:36;;;;;;;;;;;23.70;28.60;;;;;;5065144;28;19923;-53
2022/03/11 03:24:01;;;;;;;;;;;23.60;28.70;;;;;;5064100;28;19966;-53
2022/03/11 03:26:27;;;;;;;;;;;23.50;28.70;;;;;;5062489;28;19917;-53
2022/03/11 03:28:52;;;;;;;;;;;23.40;28.80;;;;;;5063671;28;19917;-53
2022/03/11 03:31:19;;;;;;;;;;;23.30;28.80;;;;;;5063465;28;20296;-51
2022/03/11 03:33:45;;;;;;;;;;;23.30;29.00;;;;;;5065478;28;19949;-52
2022/03/11 03:36:10;;;;;;;;;;;23.20;29.00;;;;;;5060959;28;19921;-53
2022/03/11 03:38:35;;;;;;;;;;;23.10;29.10;;;;;;5064289;28;19947;-53
2022/03/11 03:41:01;;;;;;;;;;;23.00;29.10;;;;;;5062127;28;19917;-53
2022/03/11 03:43:26;;;;;;;;;;;23.00;29.20;;;;;;5064186;28;19912;-53
2022/03/11 03:45:52;;;;;;;;;;;22.90;29.20;;;;;;5067002;28;19919;-53
2022/03/11 03:48:17;;;;;;;;;;;22.90;29.30;;;;;;5070328;28;20578;-53
2022/03/11 03:50:43;;;;;;;;;;;22.80;29.30;;;;;;5070727;28;19917;-53
2022/03/11 03:53:08;;;;;;;;;;;22.80;29.30;;;;;;5070144;28;19974;-53
2022/03/11 03:55:34;;;;;;;;;;;22.80;29.30;;;;;;5069693;28;19916;-53
2022/03/11 03:57:59;;;;;;;;;;;22.90;29.30;;;;;;5070577;28;19912;-53
2022/03/11 04:00:25;;;;;;;;;;;22.90;29.30;;;;;;5069932;28;19912;-53
2022/03/11 04:02:51;;;;;;;;;;;22.90;29.30;;;;;;5071017;28;20360;-54
2022/03/11 04:05:17;;;;;;;;;;;22.90;29.30;;;;;;5066345;28;20467;-54
2022/03/11 04:07:43;;;;;;;;;;;22.80;29.30;;;;;;5069996;28;20399;-53
2022/03/11 04:10:08;;;;;;;;;;;22.80;29.30;;;;;;5069187;28;20082;-52
2022/03/11 04:12:34;;;;;;;;;;;22.80;29.30;;;;;;5069318;28;19916;-53
2022/03/11 04:14:59;;;;;;;;;;;22.80;29.20;;;;;;5070276;28;19913;-54
2022/03/11 04:17:25;;;;;;;;;;;22.80;29.20;;;;;;5069901;28;19912;-52
2022/03/11 04:19:50;;;;;;;;;;;22.90;29.20;;;;;;5070239;28;19959;-53
2022/03/11 04:22:16;;;;;;;;;;;22.90;29.20;;;;;;5069859;28;20372;-53
2022/03/11 04:24:41;;;;;;;;;;;22.90;29.10;;;;;;5068939;28;19912;-53
2022/03/11 04:27:07;;;;;;;;;;;22.90;29.10;;;;;;5069689;28;20368;-55
2022/03/11 04:29:32;;;;;;;;;;;22.90;29.10;;;;;;5069518;28;19920;-52
2022/03/11 04:31:58;;;;;;;;;;;22.90;29.20;;;;;;5070491;28;20096;-53
2022/03/11 04:34:23;;;;;;;;;;;22.90;29.20;;;;;;5068961;28;20007;-53
2022/03/11 04:36:49;;;;;;;;;;;22.90;29.10;;;;;;5070088;28;20017;-53
2022/03/11 04:39:15;;;;;;;;;;;22.90;29.20;;;;;;5068993;28;19940;-53
2022/03/11 04:41:42;;;;;;;;;;;22.90;29.10;;;;;;5069772;28;19966;-53
2022/03/11 04:44:08;;;;;;;;;;;22.90;29.10;;;;;;5069846;28;20031;-53
2022/03/11 04:46:33;;;;;;;;;;;22.90;29.00;;;;;;5069375;28;20367;-53
2022/03/11 04:48:59;;;;;;;;;;;22.90;29.00;;;;;;5068018;28;19924;-53
2022/03/11 04:51:25;;;;;;;;;;;22.90;29.00;;;;;;5069302;28;19916;-53
2022/03/11 04:53:50;;;;;;;;;;;23.00;28.90;;;;;;5068793;28;19935;-53
2022/03/11 04:56:16;;;;;;;;;;;23.00;28.90;;;;;;5069880;28;19916;-53
2022/03/11 04:58:41;;;;;;;;;;;23.00;28.80;;;;;;5068559;28;20329;-53
2022/03/11 05:01:07;;;;;;;;;;;23.00;28.70;;;;;;5069664;28;19913;-53
2022/03/11 05:03:33;;;;;;;;;;;23.00;28.70;;;;;;5067626;28;20023;-53
2022/03/11 05:05:59;;;;;;;;;;;23.00;28.70;;;;;;5069221;28;19924;-54
2022/03/11 05:08:24;;;;;;;;;;;23.00;28.70;;;;;;5068895;28;19924;-52
2022/03/11 05:10:50;;;;;;;;;;;23.00;28.70;;;;;;5067968;28;19916;-52
2022/03/11 05:13:15;;;;;;;;;;;23.00;28.70;;;;;;5070007;28;20356;-53
2022/03/11 05:15:41;;;;;;;;;;;22.90;28.70;;;;;;5068118;28;19912;-53
2022/03/11 05:18:08;;;;;;;;;;;22.80;28.70;;;;;;5069636;28;19924;-53
2022/03/11 05:20:34;;;;;;;;;;;22.80;28.70;;;;;;5065608;28;20440;-53
2022/03/11 05:22:59;;;;;;;;;;;22.70;28.80;;;;;;5066733;28;19923;-53
2022/03/11 05:25:25;;;;;;;;;;;22.70;28.90;;;;;;5068944;28;19913;-53
2022/03/11 05:27:51;;;;;;;;;;;22.70;28.90;;;;;;5067489;28;19913;-53
2022/03/11 05:30:17;;;;;;;;;;;22.70;29.00;;;;;;5068848;28;19971;-53
2022/03/11 05:32:43;;;;;;;;;;;22.70;28.90;;;;;;5068352;28;19951;-53
2022/03/11 05:35:08;;;;;;;;;;;22.70;28.90;;;;;;5067331;28;19957;-54
2022/03/11 05:37:34;;;;;;;;;;;22.70;28.90;;;;;;5068185;28;19925;-54
2022/03/11 05:40:00;;;;;;;;;;;22.70;28.80;;;;;;5068256;28;19916;-54
2022/03/11 05:42:25;;;;;;;;;;;22.60;28.80;;;;;;5067666;28;19948;-52
2022/03/11 05:44:50;;;;;;;;;;;22.70;28.80;;;;;;5066730;28;19916;-53
2022/03/11 05:47:16;;;;;;;;;;;22.70;28.80;;;;;;5066642;28;20008;-53
2022/03/11 05:49:41;;;;;;;;;;;22.70;28.80;;;;;;5066833;28;19960;-53
2022/03/11 05:52:07;;;;;;;;;;;22.80;28.70;;;;;;5069087;28;19912;-53
2022/03/11 05:54:32;;;;;;;;;;;22.70;28.60;;;;;;5067201;28;19913;-53
2022/03/11 05:56:59;;;;;;;;;;;22.80;28.60;;;;;;5064907;28;19912;-53
2022/03/11 05:59:25;;;;;;;;;;;22.80;28.50;;;;;;5068539;28;19917;-53
2022/03/11 06:01:51;;;;;;;;;;;23.00;28.60;;;;;;5067142;28;20449;-53
2022/03/11 06:04:16;;;;;;;;;;;22.90;28.50;;;;;;5068443;28;19951;-52
2022/03/11 06:06:42;;;;;;;;;;;22.90;28.50;;;;;;5067552;28;19920;-53
2022/03/11 06:09:08;;;;;;;;;;;22.90;28.50;;;;;;5067846;28;19931;-53
2022/03/11 06:11:37;;;;;;;;;;;22.90;28.50;;;;;;5069016;28;20015;-53
2022/03/11 06:14:03;;;;;;;;;;;22.90;28.50;;;;;;5066716;28;19917;-53
2022/03/11 06:16:28;;;;;;;;;;;22.90;28.50;;;;;;5068732;28;19939;-53
2022/03/11 06:18:54;;;;;;;;;;;22.90;28.50;;;;;;5067606;28;19939;-52
2022/03/11 06:21:19;;;;;;;;;;;22.80;28.40;;;;;;5067942;28;19920;-53
2022/03/11 06:23:45;;;;;;;;;;;22.80;28.50;;;;;;5068080;28;19973;-53
2022/03/11 06:26:10;;;;;;;;;;;22.80;28.50;;;;;;5066711;28;19919;-53
2022/03/11 06:28:36;;;;;;;;;;;22.80;28.60;;;;;;5064933;28;20020;-53
2022/03/11 06:31:01;;;;;;;;;;;22.80;28.60;;;;;;5067272;28;20514;-53
2022/03/11 06:33:27;;;;;;;;;;;22.70;28.60;;;;;;5068762;28;19916;-53
2022/03/11 06:35:52;;;;;;;;;;;22.70;28.50;;;;;;5066904;28;20386;-53
2022/03/11 06:38:18;;;;;;;;;;;22.70;28.50;;;;;;5065149;28;20372;-53
2022/03/11 06:40:43;;;;;;;;;;;22.70;28.60;;;;;;5067856;28;19924;-53
2022/03/11 06:43:09;;;;;;;;;;;22.70;28.50;;;;;;5067438;28;20007;-54
2022/03/11 06:45:34;;;;;;;;;;;22.70;28.50;;;;;;5067108;28;19920;-54
2022/03/11 06:48:00;;;;;;;;;;;22.70;28.40;;;;;;5067951;28;20047;-54
2022/03/11 06:50:26;;;;;;;;;;;22.70;28.30;;;;;;5070771;28;20004;-54
2022/03/11 06:52:52;;;;;;;;;;;22.70;28.30;;;;;;5071166;28;19912;-52
2022/03/11 06:55:17;;;;;;;;;;;22.70;28.20;;;;;;5070030;28;19913;-53
2022/03/11 06:57:44;;;;;;;;;;;22.70;28.20;;;;;;5069434;28;19912;-52
2022/03/11 07:00:10;;;;;;;;;;;22.70;28.20;;;;;;5070604;28;19962;-53
2022/03/11 07:02:37;;;;;;;;;;;22.70;28.20;;;;;;5071456;28;20040;-53
2022/03/11 07:05:05;;;;;;;;;;;22.70;28.20;;;;;;5069757;28;19924;-53
2022/03/11 07:07:33;;;;;;;;;;;22.70;28.20;;;;;;5071647;28;19999;-53
2022/03/11 07:10:01;;;;;;;;;;;22.70;28.20;;;;;;5070342;28;19912;-53
2022/03/11 07:12:27;;;;;;;;;;;22.60;28.60;;;;;;5070786;28;19923;-53
2022/03/11 07:14:52;;;;;;;;;;;22.60;28.00;;;;;;5070812;28;19913;-53
2022/03/11 07:17:18;;;;;;;;;;;22.60;28.20;;;;;;5068029;28;20683;-53
2022/03/11 07:19:43;;;;;;;;;;;22.60;28.10;;;;;;5071066;28;20311;-53
2022/03/11 07:22:09;;;;;;;;;;;22.60;28.20;;;;;;5070869;28;20481;-53
2022/03/11 07:24:34;;;;;;;;;;;22.60;28.20;;;;;;5070583;28;19917;-53
2022/03/11 07:27:00;;;;;;;;;;;22.60;28.30;;;;;;5066866;28;20360;-53
2022/03/11 07:29:25;;;;;;;;;;;22.60;28.30;;;;;;5071342;28;19920;-54
2022/03/11 07:31:51;;;;;;;;;;;22.60;28.20;;;;;;5069802;28;19995;-54
2022/03/11 07:34:16;;;;;;;;;;;22.60;28.10;;;;;;5070308;28;19924;-54
2022/03/11 07:36:42;;;;;;;;;;;22.60;28.10;;;;;;5070906;28;19912;-54
2022/03/11 07:39:07;;;;;;;;;;;22.50;28.00;;;;;;5069407;28;19909;-51
2022/03/11 07:41:33;;;;;;;;;;;22.50;28.00;;;;;;5071007;28;19963;-54
2022/03/11 07:43:58;;;;;;;;;;;22.60;28.00;;;;;;5069989;28;20015;-54
2022/03/11 07:46:25;;;;;;;;;;;22.60;28.00;;;;;;5069656;28;19917;-54
2022/03/11 07:48:50;;;;;;;;;;;22.60;28.00;;;;;;5073473;28;19943;-53
2022/03/11 07:51:16;;;;;;;;;;;22.60;27.90;;;;;;5071351;28;19962;-54
2022/03/11 07:53:41;;;;;;;;;;;22.60;27.90;;;;;;5074075;28;19908;-54
2022/03/11 07:56:07;;;;;;;;;;;22.70;28.10;;;;;;5073444;28;20004;-53
2022/03/11 07:58:33;;;;;;;;;;;22.90;28.00;;;;;;5066903;28;19921;-53
2022/03/11 08:00:58;;;;;;;;;;;23.10;27.80;;;;;;5072917;28;19960;-53
2022/03/11 08:03:24;;;;;;;;;;;23.40;27.80;;;;;;5072875;28;19917;-53
2022/03/11 08:05:49;;;;;;;;;;;23.50;27.60;;;;;;5065270;28;19975;-53
2022/03/11 08:08:15;;;;;;;;;;;23.70;27.50;;;;;;5072783;28;19913;-53
2022/03/11 08:10:41;;;;;;;;;;;24.00;27.50;;;;;;5072380;28;20015;-53
2022/03/11 08:13:06;;;;;;;;;;;24.20;27.30;;;;;;5072414;28;20455;-53
2022/03/11 08:15:32;;;;;;;;;;;24.40;27.20;;;;;;5069664;28;19913;-53
2022/03/11 08:17:57;;;;;;;;;;;24.50;26.80;;;;;;5058705;28;20015;-52
2022/03/11 08:20:23;;;;;;;;;;;24.60;26.90;;;;;;5072637;28;19913;-53
2022/03/11 08:22:51;;;;;;;;;;;24.70;27.00;;;;;;5073488;28;19919;-52
2022/03/11 08:25:17;;;;;;;;;;;24.80;27.00;;;;;;5060963;28;21033;-52
2022/03/11 08:27:42;;;;;;;;;;;24.80;27.00;;;;;;5068012;28;19913;-52
2022/03/11 08:30:09;;;;;;;;;;;24.90;27.10;;;;;;5069651;28;19924;-52
2022/03/11 08:32:34;;;;;;;;;;;24.90;27.10;;;;;;5069341;28;19959;-53
2022/03/11 08:35:00;;;;;;;;;;;25.00;27.20;;;;;;5065973;28;19955;-52
2022/03/11 08:37:25;;;;;;;;;;;25.00;27.20;;;;;;5069169;28;19955;-52
2022/03/11 08:39:51;;;;;;;;;;;25.10;27.20;;;;;;5064702;28;19913;-52
2022/03/11 08:42:16;;;;;;;;;;;25.10;27.20;;;;;;5065627;28;19917;-53
2022/03/11 08:44:42;;;;;;;;;;;25.00;27.20;;;;;;5068271;28;19913;-52
2022/03/11 08:47:08;;;;;;;;;;;25.00;27.30;;;;;;5063092;28;19920;-52
2022/03/11 08:49:33;;;;;;;;;;;25.00;27.40;;;;;;5070445;28;20543;-53
2022/03/11 08:51:58;;;;;;;;;;;25.00;27.60;;;;;;5071627;28;19916;-52
2022/03/11 08:54:24;;;;;;;;;;;25.00;27.70;;;;;;5068377;28;20011;-52
2022/03/11 08:56:52;;;;;;;;;;;24.90;27.80;;;;;;5068454;28;19916;-52
2022/03/11 08:59:18;;;;;;;;;;;24.90;28.00;;;;;;5066885;28;19912;-53
2022/03/11 09:01:43;;;;;;;;;;;24.90;28.10;;;;;;5068143;28;19962;-52
2022/03/11 09:04:08;;;;;;;;;;;24.90;28.20;;;;;;5067762;28;19920;-53
2022/03/11 09:06:34;;;;;;;;;;;24.80;28.20;;;;;;5065565;28;19924;-53
2022/03/11 09:08:59;;;;;;;;;;;24.80;28.20;;;;;;5064987;28;19952;-53
2022/03/11 09:11:25;;;;;;;;;;;24.80;28.30;;;;;;5068476;28;20502;-53
2022/03/11 09:13:51;;;;;;;;;;;24.80;28.30;;;;;;5071027;28;19922;-52
2022/03/11 09:16:16;;;;;;;;;;;24.70;28.30;;;;;;5071620;28;20329;-52
2022/03/11 09:18:42;;;;;;;;;;;24.70;28.30;;;;;;5065944;28;19913;-53
2022/03/11 09:21:07;;;;;;;;;;;24.80;28.50;;;;;;5066818;28;20008;-53
2022/03/11 09:23:33;;;;;;;;;;;24.70;28.50;;;;;;5067932;28;19920;-52
2022/03/11 09:25:58;;;;;;;;;;;24.70;28.60;;;;;;5069094;28;20021;-52
2022/03/11 09:28:24;;;;;;;;;;;24.70;28.60;;;;;;5068786;28;20318;-52
2022/03/11 09:30:49;;;;;;;;;;;24.70;28.60;;;;;;5071673;28;19920;-52
2022/03/11 09:33:15;;;;;;;;;;;24.70;28.70;;;;;;5066267;28;19930;-52
2022/03/11 09:35:41;;;;;;;;;;;24.80;28.80;;;;;;5065637;28;20394;-52
2022/03/11 09:38:06;;;;;;;;;;;24.80;28.80;;;;;;5063403;28;20151;-52
2022/03/11 09:40:32;;;;;;;;;;;24.70;28.80;;;;;;5059075;28;20265;-53
2022/03/11 09:42:58;;;;;;;;;;;24.80;28.90;;;;;;5064371;28;19913;-52
2022/03/11 09:45:24;;;;;;;;;;;24.70;28.80;;;;;;5069314;28;20297;-53
2022/03/11 09:47:50;;;;;;;;;;;24.70;28.80;;;;;;5069172;28;19912;-53
2022/03/11 09:50:16;;;;;;;;;;;24.80;28.80;;;;;;5055209;28;19916;-53
2022/03/11 09:52:42;;;;;;;;;;;24.80;28.80;;;;;;5071952;28;20341;-52
2022/03/11 09:55:07;;;;;;;;;;;24.80;28.80;;;;;;5055126;28;20013;-53
2022/03/11 09:57:34;;;;;;;;;;;24.80;28.80;;;;;;5066059;28;19959;-52
2022/03/11 09:59:59;;;;;;;;;;;24.90;28.90;;;;;;5069830;28;19962;-53
2022/03/11 10:02:25;;;;;;;;;;;24.90;28.90;;;;;;5060453;28;20431;-53
2022/03/11 10:04:51;;;;;;;;;;;24.80;28.80;;;;;;5065458;28;19912;-53
2022/03/11 10:07:23;;;;;;;;;;;24.80;28.90;;;;;;5070950;28;19920;-53
2022/03/11 10:09:49;;;;;;;;;;;24.80;28.90;;;;;;5070778;28;19923;-53
2022/03/11 10:12:21;;;;;;;;;;;24.90;29.00;;;;;;5071647;28;19912;-53
2022/03/11 10:14:53;;;;;;;;;;;24.90;29.00;;;;;;5064801;28;20382;-53
2022/03/11 10:17:19;;;;;;;;;;;24.90;29.00;;;;;;5054110;28;19971;-53
2022/03/11 10:19:53;;;;;;;;;;;24.90;29.10;;;;;;5070827;28;19923;-53
2022/03/11 10:22:22;;;;;;;;;;;24.90;28.90;;;;;;5070626;28;20399;-52
2022/03/11 10:24:48;;;;;;;;;;;24.90;29.00;;;;;;5074926;28;20031;-53
2022/03/11 10:27:13;;;;;;;;;;;24.90;29.00;;;;;;5051822;28;20333;-52
2022/03/11 10:29:38;;;;;;;;;;;24.90;29.10;;;;;;5072254;28;19920;-53
2022/03/11 10:32:04;;;;;;;;;;;24.80;29.20;;;;;;5070581;28;19970;-53
2022/03/11 10:34:30;;;;;;;;;;;24.70;29.30;;;;;;5072594;28;19917;-52
2022/03/11 10:36:56;;;;;;;;;;;24.70;29.20;;;;;;5073835;28;20284;-52
2022/03/11 10:39:23;;;;;;;;;;;24.80;29.40;;;;;;5074183;28;19913;-53
2022/03/11 10:41:50;;;;;;;;;;;24.90;29.40;;;;;;5074889;28;19912;-52
2022/03/11 10:44:18;;;;;;;;;;;24.80;29.30;;;;;;5075311;28;21409;-53
2022/03/11 10:46:44;;;;;;;;;;;24.90;29.40;;;;;;5074414;28;19924;-53
2022/03/11 10:49:09;;;;;;;;;;;24.90;29.30;;;;;;5071707;28;19920;-53
2022/03/11 10:51:36;;;;;;;;;;;24.90;29.30;;;;;;5075467;28;19908;-53
2022/03/11 10:54:02;;;;;;;;;;;24.90;29.30;;;;;;5072904;28;19920;-52
2022/03/11 10:56:39;;;;;;;;;;;25.00;29.30;;;;;;5069691;28;19917;-53
2022/03/11 10:59:05;;;;;;;;;;;25.00;29.30;;;;;;5075232;28;20284;-53
2022/03/11 11:01:37;;;;;;;;;;;25.10;29.20;;;;;;5073538;28;19916;-53
2022/03/11 11:04:04;;;;;;;;;;;25.10;29.10;;;;;;5073360;28;20402;-53
2022/03/11 11:06:29;;;;;;;;;;;25.10;29.20;;;;;;5073899;28;19936;-53
2022/03/11 11:08:55;;;;;;;;;;;25.20;29.10;;;;;;5074529;28;19908;-52
2022/03/11 11:11:21;;;;;;;;;;;25.20;29.10;;;;;;5075196;28;20356;-52
2022/03/11 11:13:46;;;;;;;;;;;25.20;29.30;;;;;;5074513;28;19917;-53
2022/03/11 11:16:12;;;;;;;;;;;25.20;29.20;;;;;;5073777;28;19939;-52
2022/03/11 11:18:38;;;;;;;;;;;25.20;29.20;;;;;;5074361;28;19913;-53
2022/03/11 11:21:05;;;;;;;;;;;25.20;29.30;;;;;;5073857;28;20007;-53
2022/03/11 11:23:30;;;;;;;;;;;25.20;29.20;;;;;;5072842;28;19912;-53
2022/03/11 11:25:56;;;;;;;;;;;25.20;29.30;;;;;;5073014;28;19917;-52
2022/03/11 11:28:21;;;;;;;;;;;25.10;29.30;;;;;;5062776;28;20003;-53
2022/03/11 11:30:47;;;;;;;;;;;25.20;29.40;;;;;;5070355;28;19921;-52
2022/03/11 11:33:13;;;;;;;;;;;25.20;29.40;;;;;;5070690;28;19999;-52
2022/03/11 11:35:43;;;;;;;;;;;25.20;29.50;;;;;;5062918;28;19913;-53
2022/03/11 11:38:28;;;;;;;;;;;25.30;29.60;;;;;;5068923;28;19920;-52
2022/03/11 11:40:57;;;;;;;;;;;25.30;29.50;;;;;;5063954;28;19916;-53
2022/03/11 11:43:26;;;;;;;;;;;25.30;29.50;;;;;;5068720;28;19912;-52
2022/03/11 11:45:51;;;;;;;;;;;25.20;29.30;;;;;;5068733;28;20377;-52
2022/03/11 11:48:46;;;;;;;;;;;25.30;29.30;;;;;;5070029;28;19970;-52
2022/03/11 11:51:12;;;;;;;;;;;25.30;29.50;;;;;;5067954;28;19939;-53
2022/03/11 11:53:42;;;;;;;;;;;25.30;29.60;;;;;;5065931;28;19916;-52
2022/03/11 11:56:27;;;;;;;;;;;25.30;29.60;;;;;;5071252;28;19920;-53
2022/03/11 11:58:52;;;;;;;;;;;25.20;29.70;;;;;;5063383;28;19974;-53
2022/03/11 12:01:36;;;;;;;;;;;25.20;29.80;;;;;;5069520;28;19920;-53
2022/03/11 12:04:19;;;;;;;;;;;25.30;29.80;;;;;;5060572;28;19916;-53
2022/03/11 12:06:55;;;;;;;;;;;25.30;29.80;;;;;;5067851;28;20078;-53
2022/03/11 12:09:42;;;;;;;;;;;25.30;29.70;;;;;;5070956;28;20388;-53
2022/03/11 12:12:08;;;;;;;;;;;25.30;29.70;;;;;;5070062;28;19916;-52
2022/03/11 12:15:00;;;;;;;;;;;25.30;29.70;;;;;;5067126;28;19919;-53
2022/03/11 12:17:37;;;;;;;;;;;25.30;29.60;;;;;;5049256;28;19912;-52
2022/03/11 12:20:22;;;;;;;;;;;25.20;29.80;;;;;;5069819;28;20304;-52
2022/03/11 12:23:16;;;;;;;;;;;25.20;29.80;;;;;;5065406;28;19924;-52
2022/03/11 12:25:50;;;;;;;;;;;25.20;29.80;;;;;;5051486;28;19942;-52
2022/03/11 12:28:24;;;;;;;;;;;25.20;29.90;;;;;;5070445;28;20390;-52
2022/03/11 12:30:50;;;;;;;;;;;25.10;29.80;;;;;;5063034;28;19928;-52
2022/03/11 12:33:16;;;;;;;;;;;25.20;29.80;;;;;;5069180;28;19912;-51
2022/03/11 12:35:42;;;;;;;;;;;25.20;29.70;;;;;;5068316;28;19916;-52
2022/03/11 12:38:14;;;;;;;;;;;25.20;29.70;;;;;;5068372;28;20065;-52
2022/03/11 12:40:40;;;;;;;;;;;25.20;29.60;;;;;;5068254;28;19909;-52
2022/03/11 12:43:06;;;;;;;;;;;25.30;29.60;;;;;;5072661;28;20280;-53
2022/03/11 12:45:35;;;;;;;;;;;25.20;29.50;;;;;;5069591;28;19958;-54
2022/03/11 12:48:01;;;;;;;;;;;25.30;29.50;;;;;;5069344;28;19981;-53
2022/03/11 12:50:26;;;;;;;;;;;25.30;29.40;;;;;;5064711;28;19920;-53
2022/03/11 12:52:54;;;;;;;;;;;25.20;28.90;;;;;;5065945;28;19912;-53
2022/03/11 12:55:25;;;;;;;;;;;25.20;27.80;;;;;;5066718;28;19978;-53
2022/03/11 12:57:51;;;;;;;;;;;25.30;27.90;;;;;;5066992;28;19908;-53
2022/03/11 13:00:18;;;;;;;;;;;25.30;28.20;;;;;;5069813;28;19915;-53
2022/03/11 13:02:43;;;;;;;;;;;25.30;28.40;;;;;;5072029;28;19912;-53
2022/03/11 13:05:16;;;;;;;;;;;25.40;28.50;;;;;;5070743;28;19920;-53
2022/03/11 13:07:42;;;;;;;;;;;25.40;28.60;;;;;;5072407;28;19909;-53
2022/03/11 13:10:14;;;;;;;;;;;25.30;28.50;;;;;;5072232;28;19923;-53
2022/03/11 13:12:40;;;;;;;;;;;25.40;28.50;;;;;;5072783;28;19912;-53
2022/03/11 13:15:11;;;;;;;;;;;25.30;28.40;;;;;;5069552;28;20008;-53
2022/03/11 13:17:41;;;;;;;;;;;25.30;28.40;;;;;;5072951;28;19956;-53
2022/03/11 13:20:07;;;;;;;;;;;25.40;28.40;;;;;;5072344;28;19955;-54
2022/03/11 13:22:32;;;;;;;;;;;25.40;28.30;;;;;;5071109;28;20265;-53
2022/03/11 13:25:02;;;;;;;;;;;25.40;28.30;;;;;;5070823;28;19908;-53
2022/03/11 13:27:27;;;;;;;;;;;25.40;28.40;;;;;;5063432;28;19913;-53
2022/03/11 13:29:52;;;;;;;;;;;25.50;28.40;;;;;;5051192;28;19912;-52
2022/03/11 13:32:18;;;;;;;;;;;25.40;28.30;;;;;;5052886;28;19909;-53
2022/03/11 13:34:47;;;;;;;;;;;25.40;28.30;;;;;;5052418;28;19912;-52
2022/03/11 13:37:15;;;;;;;;;;;25.40;28.50;;;;;;5055780;28;19920;-53
2022/03/11 13:39:41;;;;;;;;;;;25.40;28.60;;;;;;5061990;28;19913;-52
2022/03/11 13:42:06;;;;;;;;;;;25.30;28.60;;;;;;5061550;28;19927;-53
2022/03/11 13:44:41;;;;;;;;;;;25.30;28.70;;;;;;5061774;28;19964;-53
2022/03/11 13:47:07;;;;;;;;;;;25.30;28.70;;;;;;5061616;28;20280;-53
2022/03/11 13:49:39;;;;;;;;;;;25.40;28.60;;;;;;5065982;28;20389;-53
2022/03/11 13:52:04;;;;;;;;;;;25.50;28.40;;;;;;5070354;28;19917;-53
2022/03/11 13:54:31;;;;;;;;;;;25.60;27.80;;;;;;5071686;28;19915;-53
2022/03/11 13:56:59;;;;;;;;;;;25.70;27.50;;;;;;5060952;28;19916;-53
2022/03/11 13:59:28;;;;;;;;;;;25.80;27.50;;;;;;5071726;28;19948;-53
2022/03/11 14:01:53;;;;;;;;;;;26.00;27.40;;;;;;5067915;28;20003;-53
2022/03/11 14:04:20;;;;;;;;;;;26.00;27.50;;;;;;5071650;28;20419;-53
2022/03/11 14:06:46;;;;;;;;;;;26.10;27.70;;;;;;5071784;28;20015;-53
2022/03/11 14:09:11;;;;;;;;;;;26.10;27.70;;;;;;5071249;28;20098;-53
2022/03/11 14:11:37;;;;;;;;;;;26.10;27.70;;;;;;5070849;28;19924;-53